createdAt,value
2017-12-05T00:00:06.282Z,84.01
2017-12-05T00:01:06.306Z,84.30
2017-12-05T00:02:06.222Z,84.21
2017-12-05T00:03:06.217Z,84.21
2017-12-05T00:04:06.175Z,83.73
2017-12-05T00:05:06.145Z,83.73
2017-12-05T00:06:06.132Z,84.01
2017-12-05T00:07:06.098Z,84.30
2017-12-05T00:08:06.147Z,84.68
2017-12-05T00:09:06.039Z,84.30
2017-12-05T00:10:06.055Z,84.49
2017-12-05T00:11:05.992Z,84.21
2017-12-05T00:12:06.994Z,84.78
2017-12-05T00:13:05.928Z,84.59
2017-12-05T00:14:05.981Z,84.30
2017-12-05T00:15:05.885Z,84.40
2017-12-05T00:16:05.887Z,83.92
2017-12-05T00:17:05.829Z,84.30
2017-12-05T00:18:05.903Z,84.40
2017-12-05T00:19:05.769Z,84.21
2017-12-05T00:20:05.814Z,83.64
2017-12-05T00:21:05.723Z,84.01
2017-12-05T00:22:06.744Z,84.59
2017-12-05T00:23:05.665Z,84.49
2017-12-05T00:24:05.729Z,84.21
2017-12-05T00:25:05.613Z,84.40
2017-12-05T00:26:05.641Z,84.21
2017-12-05T00:27:05.557Z,84.40
2017-12-05T00:28:05.551Z,84.30
2017-12-05T00:29:05.500Z,84.11
2017-12-05T00:30:05.562Z,84.01
2017-12-05T00:31:05.447Z,84.01
2017-12-05T00:32:05.473Z,84.11
2017-12-05T00:33:05.395Z,84.11
2017-12-05T00:34:05.502Z,84.01
2017-12-05T00:35:05.347Z,84.21
2017-12-05T00:36:05.320Z,83.54
2017-12-05T00:37:05.290Z,84.40
2017-12-05T00:38:05.302Z,83.92
2017-12-05T00:39:05.240Z,83.07
2017-12-05T00:40:05.318Z,83.83
2017-12-05T00:41:05.182Z,83.73
2017-12-05T00:42:06.248Z,83.83
2017-12-05T00:43:05.136Z,84.11
2017-12-05T00:44:05.140Z,84.01
2017-12-05T00:45:05.073Z,83.64
2017-12-05T00:46:05.151Z,84.30
2017-12-05T00:47:05.024Z,84.01
2017-12-05T00:48:05.058Z,84.21
2017-12-05T00:49:05.065Z,84.78
2017-12-05T00:50:04.951Z,84.01
2017-12-05T00:51:04.972Z,84.11
2017-12-05T00:52:04.887Z,84.01
2017-12-05T00:53:04.884Z,84.01
2017-12-05T00:54:04.845Z,84.59
2017-12-05T00:55:04.804Z,84.30
2017-12-05T00:56:04.799Z,84.01
2017-12-05T00:57:04.757Z,84.30
2017-12-05T00:58:04.813Z,84.30
2017-12-05T00:59:04.697Z,84.21
2017-12-05T01:00:04.722Z,84.11
2017-12-05T01:01:04.651Z,83.73
2017-12-05T01:02:04.740Z,84.01
2017-12-05T01:03:04.593Z,84.11
2017-12-05T01:04:04.642Z,84.49
2017-12-05T01:05:04.658Z,84.30
2017-12-05T01:06:04.533Z,84.87
2017-12-05T01:07:04.560Z,84.21
2017-12-05T01:08:04.468Z,84.59
2017-12-05T01:09:04.469Z,84.21
2017-12-05T01:10:04.408Z,84.87
2017-12-05T01:11:04.479Z,84.87
2017-12-05T01:12:04.349Z,84.87
2017-12-05T01:13:04.393Z,84.87
2017-12-05T01:14:04.302Z,84.87
2017-12-05T01:15:04.304Z,84.78
2017-12-05T01:16:04.240Z,84.59
2017-12-05T01:17:04.319Z,84.49
2017-12-05T01:18:04.188Z,84.78
2017-12-05T01:19:04.166Z,85.44
2017-12-05T01:20:04.140Z,84.87
2017-12-05T01:21:04.139Z,84.87
2017-12-05T01:22:04.096Z,84.97
2017-12-05T01:23:04.154Z,84.68
2017-12-05T01:24:04.027Z,84.30
2017-12-05T01:25:04.008Z,84.87
2017-12-05T01:26:04.066Z,84.78
2017-12-05T01:27:03.949Z,84.97
2017-12-05T01:28:03.976Z,84.78
2017-12-05T01:29:03.889Z,84.78
2017-12-05T01:30:03.988Z,84.78
2017-12-05T01:31:03.843Z,84.87
2017-12-05T01:32:04.920Z,84.64
2017-12-05T01:33:03.902Z,85.16
2017-12-05T01:34:03.766Z,85.06
2017-12-05T01:35:03.820Z,84.68
2017-12-05T01:36:03.711Z,85.72
2017-12-05T01:37:03.717Z,84.74
2017-12-05T01:38:03.659Z,84.74
2017-12-05T01:39:03.631Z,85.16
2017-12-05T01:40:03.634Z,84.92
2017-12-05T01:41:03.577Z,84.78
2017-12-05T01:42:03.651Z,84.74
2017-12-05T01:43:03.517Z,84.87
2017-12-05T01:44:03.563Z,84.78
2017-12-05T01:45:03.463Z,85.16
2017-12-05T01:46:03.467Z,84.59
2017-12-05T01:47:03.415Z,84.68
2017-12-05T01:48:03.483Z,84.64
2017-12-05T01:49:03.383Z,84.49
2017-12-05T01:50:03.335Z,85.16
2017-12-05T01:51:03.398Z,85.44
2017-12-05T01:52:03.282Z,85.06
2017-12-05T01:53:03.307Z,85.16
2017-12-05T01:54:03.220Z,84.78
2017-12-05T01:55:03.201Z,85.44
2017-12-05T01:56:03.219Z,84.78
2017-12-05T01:57:03.146Z,84.78
2017-12-05T01:58:03.133Z,84.59
2017-12-05T01:59:03.141Z,85.82
2017-12-05T02:00:03.060Z,85.06
2017-12-05T02:01:03.155Z,85.06
2017-12-05T02:02:03.017Z,85.63
2017-12-05T02:03:03.067Z,85.16
2017-12-05T02:04:02.953Z,85.35
2017-12-05T02:05:02.933Z,85.35
2017-12-05T02:06:02.982Z,85.06
2017-12-05T02:07:02.870Z,85.06
2017-12-05T02:08:02.887Z,85.82
2017-12-05T02:09:02.894Z,85.53
2017-12-05T02:10:02.791Z,85.82
2017-12-05T02:11:02.802Z,84.87
2017-12-05T02:12:02.743Z,85.11
2017-12-05T02:13:02.816Z,85.82
2017-12-05T02:14:02.691Z,85.63
2017-12-05T02:15:02.658Z,85.82
2017-12-05T02:16:02.732Z,85.35
2017-12-05T02:17:02.626Z,85.44
2017-12-05T02:18:02.643Z,85.78
2017-12-05T02:19:02.558Z,85.63
2017-12-05T02:20:02.576Z,84.97
2017-12-05T02:21:02.494Z,85.87
2017-12-05T02:22:02.562Z,85.97
2017-12-05T02:23:02.449Z,86.11
2017-12-05T02:24:02.476Z,85.68
2017-12-05T02:25:02.478Z,85.49
2017-12-05T02:26:02.361Z,85.11
2017-12-05T02:27:02.387Z,85.21
2017-12-05T02:28:02.303Z,85.78
2017-12-05T02:29:02.297Z,85.30
2017-12-05T02:30:02.258Z,85.97
2017-12-05T02:31:02.320Z,85.49
2017-12-05T02:32:02.198Z,85.21
2017-12-05T02:33:02.226Z,85.97
2017-12-05T02:34:02.149Z,85.97
2017-12-05T02:35:02.230Z,85.68
2017-12-05T02:36:02.092Z,85.59
2017-12-05T02:37:02.144Z,85.68
2017-12-05T02:38:02.044Z,86.16
2017-12-05T02:39:02.012Z,85.87
2017-12-05T02:40:01.995Z,86.07
2017-12-05T02:41:02.069Z,85.49
2017-12-05T02:42:01.938Z,86.16
2017-12-05T02:43:01.975Z,85.91
2017-12-05T02:44:01.882Z,85.82
2017-12-05T02:45:01.855Z,86.16
2017-12-05T02:46:01.935Z,86.39
2017-12-05T02:47:01.796Z,86.11
2017-12-05T02:48:01.803Z,86.25
2017-12-05T02:49:01.742Z,86.16
2017-12-05T02:50:01.731Z,86.25
2017-12-05T02:51:01.713Z,86.35
2017-12-05T02:52:01.666Z,85.78
2017-12-05T02:53:01.729Z,85.72
2017-12-05T02:54:01.614Z,86.07
2017-12-05T02:55:01.579Z,86.25
2017-12-05T02:56:01.555Z,85.87
2017-12-05T02:57:01.551Z,85.78
2017-12-05T02:58:01.504Z,86.54
2017-12-05T02:59:01.560Z,85.87
2017-12-05T03:00:01.454Z,86.07
2017-12-05T03:01:01.471Z,86.35
2017-12-05T03:02:01.392Z,86.54
2017-12-05T03:03:01.486Z,86.20
2017-12-05T03:04:01.340Z,85.91
2017-12-05T03:05:01.316Z,85.91
2017-12-05T03:06:01.330Z,86.49
2017-12-05T03:07:01.303Z,85.68
2017-12-05T03:08:01.231Z,86.49
2017-12-05T03:09:01.315Z,86.30
2017-12-05T03:10:01.181Z,86.11
2017-12-05T03:11:01.159Z,85.91
2017-12-05T03:12:01.125Z,85.97
2017-12-05T03:13:01.136Z,86.20
2017-12-05T03:14:01.073Z,86.11
2017-12-05T03:15:01.147Z,85.87
2017-12-05T03:16:01.025Z,85.82
2017-12-05T03:17:01.060Z,85.87
2017-12-05T03:18:00.966Z,85.87
2017-12-05T03:19:00.972Z,85.63
2017-12-05T03:20:00.912Z,86.16
2017-12-05T03:21:00.981Z,85.68
2017-12-05T03:22:00.855Z,85.59
2017-12-05T03:23:00.890Z,86.11
2017-12-05T03:24:00.901Z,85.40
2017-12-05T03:25:00.772Z,86.01
2017-12-05T03:26:00.805Z,85.91
2017-12-05T03:27:00.725Z,85.91
2017-12-05T03:28:00.713Z,85.82
2017-12-05T03:29:00.673Z,85.82
2017-12-05T03:30:00.640Z,86.01
2017-12-05T03:31:00.628Z,85.82
2017-12-05T03:32:00.588Z,85.63
2017-12-05T03:33:00.646Z,86.01
2017-12-05T03:34:00.534Z,85.44
2017-12-05T03:35:00.510Z,85.72
2017-12-05T03:36:00.560Z,86.49
2017-12-05T03:37:00.461Z,85.49
2017-12-05T03:38:00.471Z,85.91
2017-12-05T03:39:00.400Z,85.91
2017-12-05T03:40:00.371Z,85.72
2017-12-05T03:41:00.351Z,86.20
2017-12-05T03:42:00.393Z,85.72
2017-12-05T03:43:00.291Z,86.11
2017-12-05T03:44:00.305Z,85.53
2017-12-05T03:45:00.311Z,86.01
2017-12-05T03:46:00.213Z,85.91
2017-12-05T03:47:00.221Z,85.53
2017-12-05T03:48:00.154Z,85.82
2017-12-05T03:49:00.234Z,86.01
2017-12-05T03:50:00.102Z,85.82
2017-12-05T03:51:00.142Z,86.20
2017-12-05T03:52:00.058Z,85.82
2017-12-05T03:53:00.050Z,86.30
2017-12-05T03:53:59.999Z,85.72
2017-12-05T03:54:59.973Z,85.91
2017-12-05T03:55:59.947Z,86.39
2017-12-05T03:56:59.971Z,85.82
2017-12-05T03:57:59.902Z,85.91
2017-12-05T03:58:59.881Z,86.01
2017-12-05T03:59:59.845Z,86.30
2017-12-05T04:00:59.804Z,86.01
2017-12-05T04:01:59.901Z,85.82
2017-12-05T04:02:59.763Z,85.97
2017-12-05T04:03:59.810Z,85.82
2017-12-05T04:04:59.709Z,86.11
2017-12-05T04:05:59.721Z,85.82
2017-12-05T04:06:59.646Z,85.82
2017-12-05T04:07:59.727Z,85.72
2017-12-05T04:08:59.608Z,86.01
2017-12-05T04:09:59.638Z,85.82
2017-12-05T04:10:59.546Z,85.87
2017-12-05T04:11:59.509Z,86.11
2017-12-05T04:12:59.491Z,86.25
2017-12-05T04:13:59.562Z,86.39
2017-12-05T04:14:59.437Z,85.59
2017-12-05T04:15:59.474Z,85.97
2017-12-05T04:16:59.377Z,86.20
2017-12-05T04:17:59.365Z,85.72
2017-12-05T04:18:59.323Z,86.01
2017-12-05T04:20:00.317Z,86.11
2017-12-05T04:20:59.289Z,86.30
2017-12-05T04:21:59.307Z,86.16
2017-12-05T04:22:59.218Z,86.07
2017-12-05T04:23:59.197Z,86.39
2017-12-05T04:24:59.223Z,86.68
2017-12-05T04:25:59.135Z,85.78
2017-12-05T04:26:59.133Z,86.25
2017-12-05T04:27:59.091Z,86.01
2017-12-05T04:28:59.143Z,86.01
2017-12-05T04:29:59.029Z,86.20
2017-12-05T04:30:59.057Z,86.68
2017-12-05T04:31:58.978Z,86.01
2017-12-05T04:32:58.961Z,85.72
2017-12-05T04:33:58.921Z,85.72
2017-12-05T04:34:58.975Z,85.53
2017-12-05T04:35:58.867Z,84.97
2017-12-05T04:36:58.884Z,84.55
2017-12-05T04:37:58.813Z,84.92
2017-12-05T04:38:58.898Z,85.02
2017-12-05T04:39:58.758Z,84.92
2017-12-05T04:40:58.809Z,84.83
2017-12-05T04:41:58.713Z,84.17
2017-12-05T04:42:58.714Z,84.26
2017-12-05T04:43:58.650Z,84.17
2017-12-05T04:44:58.743Z,84.26
2017-12-05T04:45:58.617Z,83.88
2017-12-05T04:46:58.573Z,83.31
2017-12-05T04:47:58.544Z,82.93
2017-12-05T04:48:58.552Z,83.78
2017-12-05T04:49:58.498Z,83.78
2017-12-05T04:50:58.562Z,82.84
2017-12-05T04:51:58.447Z,83.97
2017-12-05T04:52:58.471Z,83.03
2017-12-05T04:53:58.389Z,83.03
2017-12-05T04:54:58.379Z,82.93
2017-12-05T04:55:58.328Z,83.22
2017-12-05T04:56:58.309Z,83.22
2017-12-05T04:57:58.276Z,83.12
2017-12-05T04:58:58.310Z,83.22
2017-12-05T04:59:58.224Z,83.03
2017-12-05T05:00:58.223Z,82.84
2017-12-05T05:01:58.172Z,83.40
2017-12-05T05:02:58.234Z,83.03
2017-12-05T05:03:58.123Z,83.12
2017-12-05T05:04:58.088Z,83.03
2017-12-05T05:05:58.144Z,83.12
2017-12-05T05:06:58.031Z,82.84
2017-12-05T05:07:58.052Z,82.27
2017-12-05T05:08:57.983Z,82.93
2017-12-05T05:09:57.959Z,82.93
2017-12-05T05:10:57.921Z,82.65
2017-12-05T05:11:57.976Z,82.93
2017-12-05T05:12:57.885Z,82.84
2017-12-05T05:13:57.886Z,82.84
2017-12-05T05:14:57.826Z,82.84
2017-12-05T05:15:57.795Z,82.46
2017-12-05T05:16:57.761Z,82.65
2017-12-05T05:17:57.810Z,82.65
2017-12-05T05:18:57.715Z,82.84
2017-12-05T05:19:57.717Z,83.03
2017-12-05T05:20:57.670Z,82.74
2017-12-05T05:21:57.623Z,82.46
2017-12-05T05:22:57.603Z,82.55
2017-12-05T05:23:57.640Z,82.84
2017-12-05T05:24:57.544Z,82.65
2017-12-05T05:25:57.562Z,82.36
2017-12-05T05:26:57.508Z,82.84
2017-12-05T05:27:57.474Z,82.08
2017-12-05T05:28:57.467Z,82.36
2017-12-05T05:29:57.444Z,82.84
2017-12-05T05:30:57.527Z,82.27
2017-12-05T05:31:57.359Z,82.17
2017-12-05T05:32:57.328Z,81.88
2017-12-05T05:33:57.303Z,82.27
2017-12-05T05:34:57.398Z,81.79
2017-12-05T05:35:57.245Z,82.17
2017-12-05T05:36:57.309Z,81.98
2017-12-05T05:37:57.198Z,82.17
2017-12-05T05:38:57.221Z,82.27
2017-12-05T05:39:57.139Z,82.74
2017-12-05T05:40:57.232Z,82.08
2017-12-05T05:41:57.092Z,82.55
2017-12-05T05:42:57.140Z,82.08
2017-12-05T05:43:57.030Z,82.46
2017-12-05T05:44:57.011Z,82.65
2017-12-05T05:45:56.985Z,82.65
2017-12-05T05:46:57.062Z,82.55
2017-12-05T05:47:56.920Z,83.03
2017-12-05T05:48:56.974Z,82.27
2017-12-05T05:49:56.878Z,82.84
2017-12-05T05:50:56.984Z,82.65
2017-12-05T05:51:56.820Z,82.27
2017-12-05T05:52:56.897Z,83.31
2017-12-05T05:53:56.759Z,82.27
2017-12-05T05:54:56.738Z,82.36
2017-12-05T05:55:56.707Z,82.65
2017-12-05T05:56:56.715Z,82.65
2017-12-05T05:57:56.657Z,82.27
2017-12-05T05:58:56.726Z,82.74
2017-12-05T05:59:56.600Z,82.36
2017-12-05T06:00:56.636Z,82.65
2017-12-05T06:01:56.542Z,82.65
2017-12-05T06:02:56.530Z,82.65
2017-12-05T06:03:56.500Z,82.84
2017-12-05T06:04:56.474Z,82.36
2017-12-05T06:05:56.439Z,82.65
2017-12-05T06:06:56.418Z,82.36
2017-12-05T06:07:56.389Z,82.65
2017-12-05T06:08:56.360Z,82.84
2017-12-05T06:09:56.336Z,82.55
2017-12-05T06:10:56.321Z,82.74
2017-12-05T06:11:56.278Z,82.08
2017-12-05T06:12:56.264Z,82.27
2017-12-05T06:13:56.227Z,81.98
2017-12-05T06:14:56.198Z,81.98
2017-12-05T06:15:56.172Z,82.27
2017-12-05T06:16:56.150Z,82.46
2017-12-05T06:17:56.117Z,82.55
2017-12-05T06:18:56.092Z,82.17
2017-12-05T06:19:56.063Z,82.46
2017-12-05T06:20:56.038Z,82.46
2017-12-05T06:21:56.010Z,82.93
2017-12-05T06:22:55.984Z,83.12
2017-12-05T06:23:55.956Z,82.84
2017-12-05T06:24:55.934Z,82.46
2017-12-05T06:25:55.907Z,82.65
2017-12-05T06:26:55.876Z,82.27
2017-12-05T06:27:55.846Z,82.46
2017-12-05T06:28:55.821Z,82.65
2017-12-05T06:29:55.799Z,82.74
2017-12-05T06:30:55.761Z,82.17
2017-12-05T06:31:56.740Z,82.46
2017-12-05T06:32:55.706Z,81.98
2017-12-05T06:33:55.693Z,82.46
2017-12-05T06:34:55.649Z,81.98
2017-12-05T06:35:55.636Z,82.27
2017-12-05T06:36:55.598Z,82.84
2017-12-05T06:37:55.579Z,82.17
2017-12-05T06:38:55.548Z,82.55
2017-12-05T06:39:55.519Z,82.46
2017-12-05T06:40:55.505Z,82.17
2017-12-05T06:41:55.461Z,83.31
2017-12-05T06:42:55.436Z,82.84
2017-12-05T06:43:55.418Z,82.65
2017-12-05T06:44:55.386Z,82.65
2017-12-05T06:45:55.352Z,82.17
2017-12-05T06:46:55.336Z,82.36
2017-12-05T06:47:55.299Z,82.36
2017-12-05T06:48:55.279Z,82.36
2017-12-05T06:49:55.251Z,82.74
2017-12-05T06:50:55.233Z,82.74
2017-12-05T06:51:55.192Z,82.46
2017-12-05T06:52:55.177Z,82.36
2017-12-05T06:53:55.138Z,82.55
2017-12-05T06:54:55.117Z,82.84
2017-12-05T06:55:55.099Z,82.55
2017-12-05T06:56:55.056Z,82.55
2017-12-05T06:57:55.040Z,82.27
2017-12-05T06:58:55.004Z,82.55
2017-12-05T06:59:55.988Z,82.46
2017-12-05T07:00:54.961Z,82.36
2017-12-05T07:01:54.924Z,82.74
2017-12-05T07:02:55.896Z,81.98
2017-12-05T07:03:54.875Z,82.08
2017-12-05T07:04:54.851Z,81.98
2017-12-05T07:05:54.823Z,82.36
2017-12-05T07:06:54.795Z,82.08
2017-12-05T07:07:54.774Z,82.55
2017-12-05T07:08:54.740Z,82.65
2017-12-05T07:09:54.714Z,82.17
2017-12-05T07:10:54.686Z,82.84
2017-12-05T07:11:55.653Z,82.55
2017-12-05T07:12:54.629Z,82.17
2017-12-05T07:13:54.609Z,82.27
2017-12-05T07:14:54.577Z,82.55
2017-12-05T07:15:54.551Z,82.36
2017-12-05T07:16:54.534Z,81.98
2017-12-05T07:17:54.501Z,82.59
2017-12-05T07:18:54.469Z,82.08
2017-12-05T07:19:54.438Z,82.50
2017-12-05T07:20:54.421Z,82.21
2017-12-05T07:21:54.388Z,82.03
2017-12-05T07:22:54.361Z,82.31
2017-12-05T07:23:54.328Z,82.03
2017-12-05T07:24:54.312Z,82.31
2017-12-05T07:25:54.285Z,82.40
2017-12-05T07:26:54.254Z,82.69
2017-12-05T07:27:54.232Z,82.65
2017-12-05T07:28:54.208Z,82.21
2017-12-05T07:29:54.172Z,82.03
2017-12-05T07:30:54.154Z,82.08
2017-12-05T07:31:54.115Z,82.40
2017-12-05T07:32:54.100Z,82.46
2017-12-05T07:33:54.065Z,82.17
2017-12-05T07:34:54.091Z,82.36
2017-12-05T07:35:54.006Z,82.50
2017-12-05T07:36:54.000Z,82.36
2017-12-05T07:37:53.954Z,82.08
2017-12-05T07:38:53.949Z,82.31
2017-12-05T07:39:53.903Z,82.03
2017-12-05T07:40:53.872Z,82.21
2017-12-05T07:41:53.841Z,82.69
2017-12-05T07:42:53.827Z,82.12
2017-12-05T07:43:53.788Z,82.40
2017-12-05T07:44:53.774Z,82.36
2017-12-05T07:45:53.738Z,82.12
2017-12-05T07:46:53.708Z,82.50
2017-12-05T07:47:53.685Z,82.36
2017-12-05T07:48:53.671Z,82.55
2017-12-05T07:49:53.630Z,82.17
2017-12-05T07:50:53.611Z,82.46
2017-12-05T07:51:53.581Z,82.36
2017-12-05T07:52:53.550Z,82.21
2017-12-05T07:53:53.530Z,82.36
2017-12-05T07:54:53.494Z,82.17
2017-12-05T07:55:53.475Z,82.21
2017-12-05T07:56:53.445Z,82.36
2017-12-05T07:57:53.428Z,82.40
2017-12-05T07:58:53.393Z,82.31
2017-12-05T07:59:53.369Z,82.69
2017-12-05T08:00:53.342Z,82.31
2017-12-05T08:01:53.341Z,82.69
2017-12-05T08:02:53.286Z,82.50
2017-12-05T08:03:53.260Z,82.69
2017-12-05T08:04:53.235Z,82.31
2017-12-05T08:05:53.199Z,83.26
2017-12-05T08:06:53.185Z,83.07
2017-12-05T08:07:53.144Z,82.88
2017-12-05T08:08:53.127Z,83.16
2017-12-05T08:09:53.089Z,82.69
2017-12-05T08:10:53.066Z,83.12
2017-12-05T08:11:54.037Z,83.45
2017-12-05T08:12:53.015Z,82.88
2017-12-05T08:13:52.986Z,82.59
2017-12-05T08:14:52.959Z,82.97
2017-12-05T08:15:52.928Z,82.97
2017-12-05T08:16:52.916Z,83.07
2017-12-05T08:17:52.890Z,82.97
2017-12-05T08:18:52.855Z,82.59
2017-12-05T08:19:52.836Z,83.03
2017-12-05T08:20:52.790Z,82.84
2017-12-05T08:21:52.771Z,83.26
2017-12-05T08:22:52.746Z,82.65
2017-12-05T08:23:52.718Z,83.12
2017-12-05T08:24:52.689Z,82.93
2017-12-05T08:25:52.665Z,82.84
2017-12-05T08:26:52.637Z,83.22
2017-12-05T08:27:52.614Z,82.50
2017-12-05T08:28:52.583Z,82.65
2017-12-05T08:29:52.554Z,82.88
2017-12-05T08:30:52.544Z,83.12
2017-12-05T08:31:52.500Z,82.40
2017-12-05T08:32:52.472Z,82.84
2017-12-05T08:33:52.458Z,82.74
2017-12-05T08:34:52.413Z,83.07
2017-12-05T08:35:52.402Z,83.16
2017-12-05T08:36:52.380Z,83.16
2017-12-05T08:37:52.349Z,83.16
2017-12-05T08:38:52.311Z,83.26
2017-12-05T08:39:52.296Z,82.84
2017-12-05T08:40:52.252Z,83.45
2017-12-05T08:41:53.236Z,82.93
2017-12-05T08:42:52.200Z,83.07
2017-12-05T08:43:52.184Z,83.36
2017-12-05T08:44:52.147Z,83.07
2017-12-05T08:45:52.126Z,82.93
2017-12-05T08:46:52.098Z,83.31
2017-12-05T08:47:52.070Z,83.73
2017-12-05T08:48:52.082Z,83.26
2017-12-05T08:49:52.015Z,83.36
2017-12-05T08:50:51.991Z,83.26
2017-12-05T08:51:51.960Z,83.31
2017-12-05T08:52:51.939Z,83.22
2017-12-05T08:53:51.904Z,83.16
2017-12-05T08:54:51.888Z,83.69
2017-12-05T08:55:51.851Z,83.50
2017-12-05T08:56:51.833Z,83.03
2017-12-05T08:57:51.797Z,83.26
2017-12-05T08:58:51.783Z,82.93
2017-12-05T08:59:51.744Z,83.16
2017-12-05T09:00:51.727Z,83.12
2017-12-05T09:01:51.687Z,82.97
2017-12-05T09:02:51.671Z,83.88
2017-12-05T09:03:51.642Z,82.97
2017-12-05T09:04:51.617Z,83.03
2017-12-05T09:05:51.591Z,83.12
2017-12-05T09:06:51.554Z,83.07
2017-12-05T09:07:51.539Z,83.26
2017-12-05T09:08:51.513Z,83.26
2017-12-05T09:09:51.485Z,83.07
2017-12-05T09:10:51.450Z,83.36
2017-12-05T09:11:51.420Z,83.64
2017-12-05T09:12:51.395Z,83.36
2017-12-05T09:13:51.375Z,83.16
2017-12-05T09:14:51.335Z,82.97
2017-12-05T09:15:51.317Z,83.07
2017-12-05T09:16:51.291Z,82.97
2017-12-05T09:17:51.272Z,83.36
2017-12-05T09:18:51.234Z,83.64
2017-12-05T09:19:51.210Z,83.26
2017-12-05T09:20:51.175Z,82.97
2017-12-05T09:21:52.155Z,83.54
2017-12-05T09:22:51.127Z,83.36
2017-12-05T09:23:51.108Z,83.64
2017-12-05T09:24:51.068Z,83.36
2017-12-05T09:25:51.043Z,83.83
2017-12-05T09:26:51.019Z,84.01
2017-12-05T09:27:50.999Z,83.83
2017-12-05T09:28:50.962Z,83.16
2017-12-05T09:29:50.947Z,84.11
2017-12-05T09:30:50.915Z,84.21
2017-12-05T09:31:50.886Z,83.73
2017-12-05T09:32:50.856Z,83.83
2017-12-05T09:33:50.835Z,84.01
2017-12-05T09:34:50.805Z,83.83
2017-12-05T09:35:50.787Z,84.01
2017-12-05T09:36:50.751Z,84.21
2017-12-05T09:37:50.744Z,84.30
2017-12-05T09:38:50.695Z,84.30
2017-12-05T09:39:50.682Z,84.21
2017-12-05T09:40:50.642Z,83.92
2017-12-05T09:41:50.625Z,84.49
2017-12-05T09:42:50.586Z,83.64
2017-12-05T09:43:50.564Z,83.92
2017-12-05T09:44:50.546Z,84.30
2017-12-05T09:45:50.517Z,84.30
2017-12-05T09:46:50.487Z,85.16
2017-12-05T09:47:50.453Z,84.01
2017-12-05T09:48:50.432Z,84.11
2017-12-05T09:49:50.411Z,84.01
2017-12-05T09:50:50.374Z,83.16
2017-12-05T09:51:51.353Z,84.01
2017-12-05T09:52:50.328Z,84.01
2017-12-05T09:53:50.299Z,84.21
2017-12-05T09:54:50.278Z,84.78
2017-12-05T09:55:50.251Z,84.87
2017-12-05T09:56:50.226Z,84.97
2017-12-05T09:57:50.184Z,84.30
2017-12-05T09:58:50.169Z,84.01
2017-12-05T09:59:50.143Z,84.49
2017-12-05T10:00:50.116Z,84.11
2017-12-05T10:01:51.086Z,84.21
2017-12-05T10:02:50.050Z,84.11
2017-12-05T10:03:50.039Z,84.21
2017-12-05T10:04:49.998Z,84.21
2017-12-05T10:05:49.989Z,84.40
2017-12-05T10:06:49.951Z,84.59
2017-12-05T10:07:49.931Z,84.11
2017-12-05T10:08:49.894Z,84.01
2017-12-05T10:09:49.873Z,84.11
2017-12-05T10:10:49.841Z,84.97
2017-12-05T10:11:49.812Z,84.21
2017-12-05T10:12:49.786Z,84.78
2017-12-05T10:13:49.771Z,84.59
2017-12-05T10:14:49.733Z,84.59
2017-12-05T10:15:49.706Z,84.40
2017-12-05T10:16:49.681Z,84.68
2017-12-05T10:17:49.650Z,84.21
2017-12-05T10:18:49.625Z,84.59
2017-12-05T10:19:49.600Z,85.06
2017-12-05T10:20:49.580Z,84.97
2017-12-05T10:21:49.549Z,84.30
2017-12-05T10:22:49.519Z,84.68
2017-12-05T10:23:49.495Z,84.49
2017-12-05T10:24:49.462Z,84.87
2017-12-05T10:25:49.437Z,84.01
2017-12-05T10:26:49.414Z,84.11
2017-12-05T10:27:49.410Z,84.21
2017-12-05T10:28:49.353Z,84.30
2017-12-05T10:29:49.327Z,84.59
2017-12-05T10:30:49.307Z,84.87
2017-12-05T10:31:50.274Z,84.97
2017-12-05T10:32:49.253Z,84.68
2017-12-05T10:33:49.232Z,84.68
2017-12-05T10:34:49.197Z,84.59
2017-12-05T10:35:49.179Z,84.87
2017-12-05T10:36:49.151Z,84.59
2017-12-05T10:37:49.129Z,84.59
2017-12-05T10:38:49.087Z,84.78
2017-12-05T10:39:49.067Z,85.06
2017-12-05T10:40:49.031Z,84.68
2017-12-05T10:41:49.008Z,84.87
2017-12-05T10:42:48.985Z,84.78
2017-12-05T10:43:48.957Z,84.68
2017-12-05T10:44:48.936Z,84.68
2017-12-05T10:45:48.905Z,84.87
2017-12-05T10:46:48.875Z,85.16
2017-12-05T10:47:48.845Z,84.78
2017-12-05T10:48:48.830Z,84.78
2017-12-05T10:49:48.786Z,85.63
2017-12-05T10:50:48.774Z,85.16
2017-12-05T10:51:48.736Z,84.87
2017-12-05T10:52:48.715Z,84.97
2017-12-05T10:53:48.685Z,84.78
2017-12-05T10:54:48.667Z,84.68
2017-12-05T10:55:48.645Z,84.78
2017-12-05T10:56:48.617Z,84.97
2017-12-05T10:57:48.581Z,85.25
2017-12-05T10:58:48.554Z,85.53
2017-12-05T10:59:48.531Z,85.16
2017-12-05T11:00:48.498Z,85.44
2017-12-05T11:01:49.474Z,86.01
2017-12-05T11:02:48.440Z,85.35
2017-12-05T11:03:48.425Z,84.87
2017-12-05T11:04:48.407Z,84.87
2017-12-05T11:05:48.372Z,86.39
2017-12-05T11:06:48.347Z,85.82
2017-12-05T11:07:48.382Z,85.35
2017-12-05T11:08:48.286Z,85.82
2017-12-05T11:09:48.254Z,85.06
2017-12-05T11:10:48.234Z,85.72
2017-12-05T11:11:48.213Z,85.53
2017-12-05T11:12:48.175Z,85.53
2017-12-05T11:13:48.162Z,86.20
2017-12-05T11:14:48.127Z,85.44
2017-12-05T11:15:48.107Z,85.35
2017-12-05T11:16:48.085Z,84.87
2017-12-05T11:17:48.068Z,85.63
2017-12-05T11:18:48.011Z,85.72
2017-12-05T11:19:47.998Z,85.06
2017-12-05T11:20:47.962Z,85.82
2017-12-05T11:21:47.933Z,86.20
2017-12-05T11:22:47.928Z,86.20
2017-12-05T11:23:47.886Z,85.25
2017-12-05T11:24:47.868Z,85.72
2017-12-05T11:25:47.828Z,85.06
2017-12-05T11:26:47.811Z,84.87
2017-12-05T11:27:47.786Z,86.20
2017-12-05T11:28:47.752Z,86.39
2017-12-05T11:29:47.728Z,85.25
2017-12-05T11:30:47.736Z,85.35
2017-12-05T11:31:48.677Z,85.44
2017-12-05T11:32:47.643Z,85.72
2017-12-05T11:33:47.626Z,85.91
2017-12-05T11:34:47.593Z,86.20
2017-12-05T11:35:47.570Z,85.77
2017-12-05T11:36:47.533Z,85.86
2017-12-05T11:37:47.518Z,85.82
2017-12-05T11:38:47.483Z,86.63
2017-12-05T11:39:47.466Z,85.72
2017-12-05T11:40:47.432Z,86.82
2017-12-05T11:41:47.407Z,86.63
2017-12-05T11:42:47.382Z,85.72
2017-12-05T11:43:47.351Z,86.11
2017-12-05T11:44:47.336Z,86.20
2017-12-05T11:45:47.304Z,87.15
2017-12-05T11:46:47.267Z,86.24
2017-12-05T11:47:47.245Z,86.05
2017-12-05T11:48:47.218Z,86.96
2017-12-05T11:49:48.186Z,86.96
2017-12-05T11:50:47.165Z,86.49
2017-12-05T11:51:47.141Z,86.34
2017-12-05T11:52:47.114Z,86.30
2017-12-05T11:53:47.084Z,86.15
2017-12-05T11:54:47.056Z,86.49
2017-12-05T11:55:47.038Z,86.72
2017-12-05T11:56:47.004Z,85.86
2017-12-05T11:57:46.974Z,86.87
2017-12-05T11:58:46.955Z,85.96
2017-12-05T11:59:46.917Z,87.10
2017-12-05T12:00:46.901Z,86.39
2017-12-05T12:01:46.871Z,86.72
2017-12-05T12:02:46.844Z,86.43
2017-12-05T12:03:46.816Z,86.72
2017-12-05T12:04:46.788Z,87.10
2017-12-05T12:05:46.763Z,87.29
2017-12-05T12:06:46.733Z,86.43
2017-12-05T12:07:46.704Z,85.91
2017-12-05T12:08:46.688Z,86.72
2017-12-05T12:09:46.654Z,86.43
2017-12-05T12:10:46.630Z,86.72
2017-12-05T12:11:46.596Z,87.10
2017-12-05T12:12:46.595Z,87.01
2017-12-05T12:13:46.553Z,86.24
2017-12-05T12:14:46.536Z,87.05
2017-12-05T12:15:46.504Z,86.87
2017-12-05T12:16:46.463Z,86.39
2017-12-05T12:17:46.453Z,86.72
2017-12-05T12:18:46.419Z,86.72
2017-12-05T12:19:46.390Z,86.72
2017-12-05T12:20:46.371Z,87.10
2017-12-05T12:21:46.339Z,86.15
2017-12-05T12:22:46.314Z,88.15
2017-12-05T12:23:46.283Z,87.48
2017-12-05T12:24:46.262Z,86.34
2017-12-05T12:25:46.234Z,86.43
2017-12-05T12:26:46.199Z,87.01
2017-12-05T12:27:46.182Z,86.63
2017-12-05T12:28:46.152Z,87.19
2017-12-05T12:29:46.152Z,86.43
2017-12-05T12:30:46.087Z,87.19
2017-12-05T12:31:46.071Z,87.01
2017-12-05T12:32:46.055Z,87.29
2017-12-05T12:33:46.011Z,87.67
2017-12-05T12:34:45.987Z,87.48
2017-12-05T12:35:45.960Z,86.53
2017-12-05T12:36:45.937Z,87.82
2017-12-05T12:37:45.907Z,87.01
2017-12-05T12:38:45.881Z,87.67
2017-12-05T12:39:45.861Z,88.05
2017-12-05T12:40:45.834Z,87.10
2017-12-05T12:41:46.801Z,86.91
2017-12-05T12:42:45.774Z,87.01
2017-12-05T12:43:45.748Z,86.72
2017-12-05T12:44:45.723Z,86.91
2017-12-05T12:45:45.700Z,87.10
2017-12-05T12:46:45.672Z,86.34
2017-12-05T12:47:45.675Z,88.15
2017-12-05T12:48:45.621Z,86.91
2017-12-05T12:49:45.586Z,87.10
2017-12-05T12:50:45.562Z,87.95
2017-12-05T12:51:45.530Z,87.01